sensor_id;sensor_type;location;lat;lon;timestamp;pressure;altitude;pressure_sealevel;temperature;humidity
13314;BME280;6725;48.112;11.604;2023-07-31T00:00:26;95462.75;;;18.22;100.00
13314;BME280;6725;48.112;11.604;2023-07-31T00:02:52;95460.59;;;18.17;100.00
13314;BME280;6725;48.112;11.604;2023-07-31T00:05:17;95458.97;;;18.07;100.00
13314;BME280;6725;48.112;11.604;2023-07-31T00:07:43;95461.41;;;18.05;100.00
13314;BME280;6725;48.112;11.604;2023-07-31T00:10:08;95456.25;;;17.94;100.00
13314;BME280;6725;48.112;11.604;2023-07-31T00:12:34;95455.72;;;17.87;100.00
13314;BME280;6725;48.112;11.604;2023-07-31T00:14:59;95452.00;;;17.81;100.00
13314;BME280;6725;48.112;11.604;2023-07-31T00:17:24;95439.63;;;17.73;100.00
13314;BME280;6725;48.112;11.604;2023-07-31T00:19:50;95449.41;;;17.65;100.00
13314;BME280;6725;48.112;11.604;2023-07-31T00:22:16;95451.66;;;17.57;100.00
13314;BME280;6725;48.112;11.604;2023-07-31T00:24:41;95446.47;;;17.47;100.00
13314;BME280;6725;48.112;11.604;2023-07-31T00:27:06;95446.66;;;17.40;100.00
13314;BME280;6725;48.112;11.604;2023-07-31T00:29:32;95443.25;;;17.36;100.00
13314;BME280;6725;48.112;11.604;2023-07-31T00:31:57;95438.66;;;17.33;100.00
13314;BME280;6725;48.112;11.604;2023-07-31T00:34:22;95429.25;;;17.30;100.00
13314;BME280;6725;48.112;11.604;2023-07-31T00:36:48;95432.78;;;17.31;100.00
13314;BME280;6725;48.112;11.604;2023-07-31T00:39:13;95430.91;;;17.28;100.00
13314;BME280;6725;48.112;11.604;2023-07-31T00:41:38;95424.75;;;17.24;100.00
13314;BME280;6725;48.112;11.604;2023-07-31T00:44:04;95423.00;;;17.17;100.00
13314;BME280;6725;48.112;11.604;2023-07-31T00:46:29;95418.81;;;17.13;100.00
13314;BME280;6725;48.112;11.604;2023-07-31T00:48:55;95411.09;;;17.08;100.00
13314;BME280;6725;48.112;11.604;2023-07-31T00:51:20;95411.97;;;17.05;100.00
13314;BME280;6725;48.112;11.604;2023-07-31T00:53:46;95410.56;;;17.00;100.00
13314;BME280;6725;48.112;11.604;2023-07-31T00:56:12;95411.13;;;16.95;100.00
13314;BME280;6725;48.112;11.604;2023-07-31T00:58:37;95413.97;;;16.92;100.00
13314;BME280;6725;48.112;11.604;2023-07-31T01:01:02;95413.22;;;16.91;100.00
13314;BME280;6725;48.112;11.604;2023-07-31T01:03:28;95402.63;;;16.90;100.00
13314;BME280;6725;48.112;11.604;2023-07-31T01:06:20;95399.88;;;16.90;100.00
13314;BME280;6725;48.112;11.604;2023-07-31T01:09:10;95401.41;;;16.91;100.00
13314;BME280;6725;48.112;11.604;2023-07-31T01:11:47;95398.78;;;16.87;100.00
13314;BME280;6725;48.112;11.604;2023-07-31T01:14:13;95395.47;;;16.80;100.00
13314;BME280;6725;48.112;11.604;2023-07-31T01:16:38;95386.88;;;16.78;100.00
13314;BME280;6725;48.112;11.604;2023-07-31T01:19:05;95389.94;;;16.80;100.00
13314;BME280;6725;48.112;11.604;2023-07-31T01:27:29;95382.66;;;16.86;100.00
13314;BME280;6725;48.112;11.604;2023-07-31T01:32:24;95368.94;;;16.95;100.00
13314;BME280;6725;48.112;11.604;2023-07-31T01:34:53;95359.44;;;16.96;100.00
13314;BME280;6725;48.112;11.604;2023-07-31T01:37:18;95372.69;;;17.01;100.00
13314;BME280;6725;48.112;11.604;2023-07-31T01:39:44;95380.53;;;17.02;100.00
13314;BME280;6725;48.112;11.604;2023-07-31T01:42:09;95373.00;;;17.03;100.00
13314;BME280;6725;48.112;11.604;2023-07-31T01:44:34;95370.81;;;16.98;100.00
13314;BME280;6725;48.112;11.604;2023-07-31T01:47:00;95368.06;;;16.98;100.00
13314;BME280;6725;48.112;11.604;2023-07-31T01:49:26;95367.94;;;17.01;100.00
13314;BME280;6725;48.112;11.604;2023-07-31T01:51:51;95365.19;;;17.01;100.00
13314;BME280;6725;48.112;11.604;2023-07-31T01:54:16;95361.66;;;17.01;100.00
13314;BME280;6725;48.112;11.604;2023-07-31T01:56:42;95361.66;;;17.01;100.00
13314;BME280;6725;48.112;11.604;2023-07-31T01:59:07;95355.38;;;17.00;100.00
13314;BME280;6725;48.112;11.604;2023-07-31T02:01:32;95362.31;;;17.05;100.00
13314;BME280;6725;48.112;11.604;2023-07-31T02:03:58;95358.31;;;17.06;100.00
13314;BME280;6725;48.112;11.604;2023-07-31T02:06:23;95367.25;;;17.10;100.00
13314;BME280;6725;48.112;11.604;2023-07-31T02:08:48;95359.63;;;17.14;100.00
13314;BME280;6725;48.112;11.604;2023-07-31T02:11:14;95351.69;;;17.16;100.00
13314;BME280;6725;48.112;11.604;2023-07-31T02:13:40;95353.88;;;17.21;100.00
13314;BME280;6725;48.112;11.604;2023-07-31T02:16:05;95353.41;;;17.22;100.00
13314;BME280;6725;48.112;11.604;2023-07-31T02:18:30;95352.97;;;17.24;100.00
13314;BME280;6725;48.112;11.604;2023-07-31T02:20:56;95349.00;;;17.25;100.00
13314;BME280;6725;48.112;11.604;2023-07-31T02:23:21;95338.41;;;17.23;100.00
13314;BME280;6725;48.112;11.604;2023-07-31T02:25:46;95342.06;;;17.20;100.00
13314;BME280;6725;48.112;11.604;2023-07-31T02:28:12;95338.19;;;17.18;100.00
13314;BME280;6725;48.112;11.604;2023-07-31T02:30:38;95331.13;;;17.17;100.00
13314;BME280;6725;48.112;11.604;2023-07-31T02:33:04;95341.44;;;17.16;100.00
13314;BME280;6725;48.112;11.604;2023-07-31T02:35:30;95337.53;;;17.14;100.00
13314;BME280;6725;48.112;11.604;2023-07-31T02:37:55;95334.47;;;17.12;100.00
13314;BME280;6725;48.112;11.604;2023-07-31T02:40:21;95326.63;;;17.10;100.00
13314;BME280;6725;48.112;11.604;2023-07-31T02:42:46;95326.19;;;17.12;100.00
13314;BME280;6725;48.112;11.604;2023-07-31T02:45:11;95323.09;;;17.10;100.00
13314;BME280;6725;48.112;11.604;2023-07-31T02:47:37;95322.47;;;17.06;100.00
13314;BME280;6725;48.112;11.604;2023-07-31T02:50:03;95315.97;;;17.00;100.00
13314;BME280;6725;48.112;11.604;2023-07-31T02:52:28;95315.44;;;16.92;100.00
13314;BME280;6725;48.112;11.604;2023-07-31T02:54:53;95313.34;;;16.84;100.00
13314;BME280;6725;48.112;11.604;2023-07-31T02:57:19;95309.31;;;16.76;100.00
13314;BME280;6725;48.112;11.604;2023-07-31T02:59:44;95308.31;;;16.70;100.00
13314;BME280;6725;48.112;11.604;2023-07-31T03:02:10;95298.41;;;16.60;100.00
13314;BME280;6725;48.112;11.604;2023-07-31T03:04:36;95291.56;;;16.52;100.00
13314;BME280;6725;48.112;11.604;2023-07-31T03:07:01;95294.47;;;16.48;100.00
13314;BME280;6725;48.112;11.604;2023-07-31T03:09:27;95287.50;;;16.43;100.00
13314;BME280;6725;48.112;11.604;2023-07-31T03:11:52;95276.16;;;16.42;100.00
13314;BME280;6725;48.112;11.604;2023-07-31T03:14:18;95273.03;;;16.39;100.00
13314;BME280;6725;48.112;11.604;2023-07-31T03:16:43;95271.16;;;16.36;100.00
13314;BME280;6725;48.112;11.604;2023-07-31T03:19:08;95262.25;;;16.32;100.00
13314;BME280;6725;48.112;11.604;2023-07-31T03:21:34;95260.81;;;16.28;100.00
13314;BME280;6725;48.112;11.604;2023-07-31T03:23:59;95257.53;;;16.20;100.00
13314;BME280;6725;48.112;11.604;2023-07-31T03:26:24;95250.72;;;16.12;100.00
13314;BME280;6725;48.112;11.604;2023-07-31T03:28:50;95240.88;;;16.11;100.00
13314;BME280;6725;48.112;11.604;2023-07-31T03:31:15;95243.31;;;16.09;100.00
13314;BME280;6725;48.112;11.604;2023-07-31T03:33:40;95245.06;;;16.03;100.00
13314;BME280;6725;48.112;11.604;2023-07-31T03:36:06;95235.84;;;15.97;100.00
13314;BME280;6725;48.112;11.604;2023-07-31T03:38:31;95225.69;;;15.94;100.00
13314;BME280;6725;48.112;11.604;2023-07-31T03:40:56;95228.13;;;15.92;100.00
13314;BME280;6725;48.112;11.604;2023-07-31T03:43:24;95217.97;;;15.89;100.00
13314;BME280;6725;48.112;11.604;2023-07-31T03:45:50;95206.63;;;15.87;100.00
13314;BME280;6725;48.112;11.604;2023-07-31T03:48:15;95197.59;;;15.87;100.00
13314;BME280;6725;48.112;11.604;2023-07-31T03:50:41;95188.16;;;15.88;100.00
13314;BME280;6725;48.112;11.604;2023-07-31T03:53:07;95176.66;;;15.89;100.00
13314;BME280;6725;48.112;11.604;2023-07-31T03:55:32;95171.50;;;15.91;100.00
13314;BME280;6725;48.112;11.604;2023-07-31T03:57:57;95171.50;;;15.91;100.00
13314;BME280;6725;48.112;11.604;2023-07-31T04:00:23;95161.47;;;15.97;100.00
13314;BME280;6725;48.112;11.604;2023-07-31T04:02:48;95150.66;;;16.03;100.00
13314;BME280;6725;48.112;11.604;2023-07-31T04:05:13;95149.00;;;16.05;100.00
13314;BME280;6725;48.112;11.604;2023-07-31T04:07:39;95146.56;;;16.07;100.00
13314;BME280;6725;48.112;11.604;2023-07-31T04:10:04;95143.78;;;16.07;100.00
13314;BME280;6725;48.112;11.604;2023-07-31T04:12:30;95143.78;;;16.07;100.00
13314;BME280;6725;48.112;11.604;2023-07-31T04:14:55;95130.38;;;16.09;100.00
13314;BME280;6725;48.112;11.604;2023-07-31T04:17:20;95125.16;;;16.11;100.00
13314;BME280;6725;48.112;11.604;2023-07-31T04:19:46;95129.47;;;16.12;100.00
13314;BME280;6725;48.112;11.604;2023-07-31T04:22:11;95128.59;;;16.15;100.00
13314;BME280;6725;48.112;11.604;2023-07-31T04:24:36;95126.47;;;16.19;100.00
13314;BME280;6725;48.112;11.604;2023-07-31T04:27:02;95133.84;;;16.22;100.00
13314;BME280;6725;48.112;11.604;2023-07-31T04:29:27;95128.19;;;16.38;100.00
13314;BME280;6725;48.112;11.604;2023-07-31T04:31:53;95136.69;;;16.44;100.00
13314;BME280;6725;48.112;11.604;2023-07-31T04:34:18;95139.19;;;16.51;100.00
13314;BME280;6725;48.112;11.604;2023-07-31T04:36:43;95145.19;;;16.59;100.00
13314;BME280;6725;48.112;11.604;2023-07-31T04:39:08;95151.69;;;16.65;100.00
13314;BME280;6725;48.112;11.604;2023-07-31T04:41:34;95144.50;;;16.67;100.00
13314;BME280;6725;48.112;11.604;2023-07-31T04:43:59;95149.00;;;16.74;100.00
13314;BME280;6725;48.112;11.604;2023-07-31T04:46:24;95150.59;;;16.84;100.00
13314;BME280;6725;48.112;11.604;2023-07-31T04:48:50;95149.75;;;17.17;100.00
13314;BME280;6725;48.112;11.604;2023-07-31T04:51:15;95167.56;;;17.47;100.00
13314;BME280;6725;48.112;11.604;2023-07-31T04:53:41;95184.50;;;17.58;100.00
13314;BME280;6725;48.112;11.604;2023-07-31T04:56:06;95207.38;;;17.58;100.00
13314;BME280;6725;48.112;11.604;2023-07-31T04:58:31;95213.97;;;17.61;100.00
13314;BME280;6725;48.112;11.604;2023-07-31T05:00:57;95223.41;;;18.12;100.00
13314;BME280;6725;48.112;11.604;2023-07-31T05:03:22;95236.81;;;18.89;100.00
13314;BME280;6725;48.112;11.604;2023-07-31T05:05:47;95255.53;;;19.75;100.00
13314;BME280;6725;48.112;11.604;2023-07-31T05:08:13;95286.41;;;20.51;100.00
13314;BME280;6725;48.112;11.604;2023-07-31T05:10:38;95306.72;;;21.13;100.00
13314;BME280;6725;48.112;11.604;2023-07-31T05:13:03;95323.91;;;21.64;100.00
13314;BME280;6725;48.112;11.604;2023-07-31T05:15:29;95333.50;;;22.30;100.00
13314;BME280;6725;48.112;11.604;2023-07-31T05:17:54;95332.50;;;22.77;100.00
13314;BME280;6725;48.112;11.604;2023-07-31T05:20:20;95337.78;;;22.90;100.00
13314;BME280;6725;48.112;11.604;2023-07-31T05:22:46;95345.22;;;23.53;100.00
13314;BME280;6725;48.112;11.604;2023-07-31T05:25:11;95344.50;;;23.98;100.00
13314;BME280;6725;48.112;11.604;2023-07-31T05:27:36;95351.75;;;23.70;100.00
13314;BME280;6725;48.112;11.604;2023-07-31T05:30:02;95353.13;;;23.54;100.00
13314;BME280;6725;48.112;11.604;2023-07-31T05:32:28;95347.09;;;23.21;100.00
13314;BME280;6725;48.112;11.604;2023-07-31T05:34:53;95341.94;;;23.74;100.00
13314;BME280;6725;48.112;11.604;2023-07-31T05:37:19;95330.13;;;24.05;100.00
13314;BME280;6725;48.112;11.604;2023-07-31T05:39:45;95345.63;;;23.66;100.00
13314;BME280;6725;48.112;11.604;2023-07-31T05:42:10;95339.69;;;24.24;100.00
13314;BME280;6725;48.112;11.604;2023-07-31T05:44:35;95334.38;;;24.57;100.00
13314;BME280;6725;48.112;11.604;2023-07-31T05:47:01;95341.72;;;24.80;100.00
13314;BME280;6725;48.112;11.604;2023-07-31T05:49:26;95334.50;;;24.68;100.00
13314;BME280;6725;48.112;11.604;2023-07-31T05:51:51;95335.38;;;24.79;100.00
13314;BME280;6725;48.112;11.604;2023-07-31T05:54:17;95337.88;;;24.77;100.00
13314;BME280;6725;48.112;11.604;2023-07-31T05:56:42;95342.09;;;24.62;100.00
13314;BME280;6725;48.112;11.604;2023-07-31T05:59:09;95338.06;;;24.12;100.00
13314;BME280;6725;48.112;11.604;2023-07-31T06:01:35;95339.03;;;23.43;100.00
13314;BME280;6725;48.112;11.604;2023-07-31T06:04:00;95341.19;;;23.54;100.00
13314;BME280;6725;48.112;11.604;2023-07-31T06:06:26;95339.72;;;23.58;100.00
13314;BME280;6725;48.112;11.604;2023-07-31T06:08:52;95339.09;;;23.29;100.00
13314;BME280;6725;48.112;11.604;2023-07-31T06:11:19;95333.09;;;23.36;100.00
13314;BME280;6725;48.112;11.604;2023-07-31T06:13:45;95337.41;;;23.57;100.00
13314;BME280;6725;48.112;11.604;2023-07-31T06:16:12;95333.47;;;23.89;100.00
13314;BME280;6725;48.112;11.604;2023-07-31T06:18:37;95329.34;;;24.61;100.00
13314;BME280;6725;48.112;11.604;2023-07-31T06:21:02;95342.44;;;24.75;100.00
13314;BME280;6725;48.112;11.604;2023-07-31T06:23:28;95341.88;;;25.02;100.00
13314;BME280;6725;48.112;11.604;2023-07-31T06:25:53;95346.97;;;25.09;100.00
13314;BME280;6725;48.112;11.604;2023-07-31T06:28:18;95347.94;;;24.95;100.00
13314;BME280;6725;48.112;11.604;2023-07-31T06:30:43;95348.00;;;25.06;100.00
13314;BME280;6725;48.112;11.604;2023-07-31T06:33:09;95353.63;;;24.75;100.00
13314;BME280;6725;48.112;11.604;2023-07-31T06:35:34;95350.53;;;24.67;100.00
13314;BME280;6725;48.112;11.604;2023-07-31T06:38:00;95346.34;;;24.32;100.00
13314;BME280;6725;48.112;11.604;2023-07-31T06:40:26;95351.47;;;23.88;100.00
13314;BME280;6725;48.112;11.604;2023-07-31T06:42:52;95357.19;;;23.59;100.00
13314;BME280;6725;48.112;11.604;2023-07-31T06:45:17;95353.88;;;23.35;100.00
13314;BME280;6725;48.112;11.604;2023-07-31T06:47:42;95358.75;;;23.05;100.00
13314;BME280;6725;48.112;11.604;2023-07-31T06:50:08;95358.22;;;22.87;100.00
13314;BME280;6725;48.112;11.604;2023-07-31T06:52:33;95353.56;;;22.98;100.00
13314;BME280;6725;48.112;11.604;2023-07-31T06:55:19;95357.28;;;22.90;100.00
13314;BME280;6725;48.112;11.604;2023-07-31T06:57:50;95346.28;;;23.01;100.00
13314;BME280;6725;48.112;11.604;2023-07-31T07:00:17;95342.66;;;23.15;100.00
13314;BME280;6725;48.112;11.604;2023-07-31T07:02:42;95333.50;;;23.29;100.00
13314;BME280;6725;48.112;11.604;2023-07-31T07:05:08;95335.97;;;23.07;100.00
13314;BME280;6725;48.112;11.604;2023-07-31T07:07:34;95335.25;;;22.92;100.00
13314;BME280;6725;48.112;11.604;2023-07-31T07:10:00;95334.97;;;22.90;100.00
13314;BME280;6725;48.112;11.604;2023-07-31T07:12:28;95337.06;;;22.95;100.00
13314;BME280;6725;48.112;11.604;2023-07-31T07:14:54;95340.81;;;23.26;100.00
13314;BME280;6725;48.112;11.604;2023-07-31T07:17:19;95333.38;;;23.58;100.00
13314;BME280;6725;48.112;11.604;2023-07-31T07:19:45;95334.59;;;23.77;100.00
13314;BME280;6725;48.112;11.604;2023-07-31T07:22:13;95330.41;;;23.87;100.00
13314;BME280;6725;48.112;11.604;2023-07-31T07:24:38;95328.94;;;24.42;100.00
13314;BME280;6725;48.112;11.604;2023-07-31T07:27:04;95331.75;;;25.10;100.00
13314;BME280;6725;48.112;11.604;2023-07-31T07:29:30;95336.00;;;25.95;100.00
13314;BME280;6725;48.112;11.604;2023-07-31T07:31:55;95333.59;;;26.85;100.00
13314;BME280;6725;48.112;11.604;2023-07-31T07:34:23;95334.53;;;26.27;100.00
13314;BME280;6725;48.112;11.604;2023-07-31T07:36:49;95330.97;;;27.31;100.00
13314;BME280;6725;48.112;11.604;2023-07-31T07:39:14;95328.16;;;28.46;100.00
13314;BME280;6725;48.112;11.604;2023-07-31T07:41:40;95320.78;;;29.07;97.44
13314;BME280;6725;48.112;11.604;2023-07-31T07:44:05;95322.97;;;30.42;88.65
13314;BME280;6725;48.112;11.604;2023-07-31T07:46:31;95321.31;;;30.15;81.16
13314;BME280;6725;48.112;11.604;2023-07-31T07:48:56;95320.81;;;30.11;79.94
13314;BME280;6725;48.112;11.604;2023-07-31T07:51:22;95318.69;;;30.54;77.62
13314;BME280;6725;48.112;11.604;2023-07-31T07:53:47;95311.53;;;30.53;77.67
13314;BME280;6725;48.112;11.604;2023-07-31T07:56:12;95312.03;;;31.01;73.11
13314;BME280;6725;48.112;11.604;2023-07-31T07:58:37;95303.03;;;31.03;73.20
13314;BME280;6725;48.112;11.604;2023-07-31T08:01:03;95303.09;;;30.66;76.66
13314;BME280;6725;48.112;11.604;2023-07-31T08:03:28;95295.06;;;30.57;76.35
13314;BME280;6725;48.112;11.604;2023-07-31T08:06:00;95292.66;;;30.48;74.98
13314;BME280;6725;48.112;11.604;2023-07-31T08:08:26;95289.97;;;30.87;75.06
13314;BME280;6725;48.112;11.604;2023-07-31T08:10:51;95291.53;;;31.14;67.61
13314;BME280;6725;48.112;11.604;2023-07-31T08:13:17;95289.97;;;30.87;70.31
13314;BME280;6725;48.112;11.604;2023-07-31T08:15:42;95298.41;;;30.74;70.44
13314;BME280;6725;48.112;11.604;2023-07-31T08:18:08;95293.31;;;31.30;70.19
13314;BME280;6725;48.112;11.604;2023-07-31T08:20:33;95303.81;;;32.54;60.68
13314;BME280;6725;48.112;11.604;2023-07-31T08:22:59;95301.78;;;32.29;60.99
13314;BME280;6725;48.112;11.604;2023-07-31T08:25:24;95310.25;;;31.30;65.69
13314;BME280;6725;48.112;11.604;2023-07-31T08:27:50;95302.22;;;31.73;65.05
13314;BME280;6725;48.112;11.604;2023-07-31T08:30:18;95299.63;;;31.49;65.24
13314;BME280;6725;48.112;11.604;2023-07-31T08:32:43;95296.44;;;30.50;71.01
13314;BME280;6725;48.112;11.604;2023-07-31T08:35:08;95283.44;;;30.10;73.80
13314;BME280;6725;48.112;11.604;2023-07-31T08:37:34;95295.09;;;29.16;79.16
13314;BME280;6725;48.112;11.604;2023-07-31T08:39:59;95291.59;;;28.46;88.67
13314;BME280;6725;48.112;11.604;2023-07-31T08:42:25;95290.56;;;28.13;91.26
13314;BME280;6725;48.112;11.604;2023-07-31T08:44:50;95288.75;;;27.64;95.58
13314;BME280;6725;48.112;11.604;2023-07-31T08:47:19;95286.41;;;27.00;98.04
13314;BME280;6725;48.112;11.604;2023-07-31T08:49:46;95281.84;;;26.64;100.00
13314;BME280;6725;48.112;11.604;2023-07-31T08:52:11;95286.56;;;25.81;100.00
13314;BME280;6725;48.112;11.604;2023-07-31T08:54:36;95282.97;;;25.64;100.00
13314;BME280;6725;48.112;11.604;2023-07-31T08:57:02;95277.84;;;25.57;100.00
13314;BME280;6725;48.112;11.604;2023-07-31T08:59:30;95280.31;;;25.38;100.00
13314;BME280;6725;48.112;11.604;2023-07-31T09:01:58;95279.06;;;24.97;100.00
13314;BME280;6725;48.112;11.604;2023-07-31T09:04:26;95275.47;;;24.55;100.00
13314;BME280;6725;48.112;11.604;2023-07-31T09:06:57;95288.47;;;24.58;100.00
13314;BME280;6725;48.112;11.604;2023-07-31T09:09:24;95282.78;;;24.78;100.00
13314;BME280;6725;48.112;11.604;2023-07-31T09:11:50;95283.72;;;25.11;100.00
13314;BME280;6725;48.112;11.604;2023-07-31T09:14:17;95287.25;;;25.06;100.00
13314;BME280;6725;48.112;11.604;2023-07-31T09:16:57;95272.91;;;25.30;100.00
13314;BME280;6725;48.112;11.604;2023-07-31T09:19:29;95282.81;;;25.95;100.00
13314;BME280;6725;48.112;11.604;2023-07-31T09:21:54;95281.34;;;26.60;100.00
13314;BME280;6725;48.112;11.604;2023-07-31T09:24:30;95273.53;;;27.38;100.00
13314;BME280;6725;48.112;11.604;2023-07-31T09:26:57;95278.00;;;28.20;97.65
13314;BME280;6725;48.112;11.604;2023-07-31T09:29:24;95271.47;;;28.71;88.27
13314;BME280;6725;48.112;11.604;2023-07-31T09:31:50;95274.53;;;28.44;88.02
13314;BME280;6725;48.112;11.604;2023-07-31T09:34:15;95273.78;;;28.02;88.34
13314;BME280;6725;48.112;11.604;2023-07-31T09:36:46;95272.78;;;27.94;90.92
13314;BME280;6725;48.112;11.604;2023-07-31T09:39:13;95266.72;;;28.85;88.85
13314;BME280;6725;48.112;11.604;2023-07-31T09:41:40;95258.09;;;29.07;85.33
13314;BME280;6725;48.112;11.604;2023-07-31T09:44:06;95267.78;;;29.54;77.98
13314;BME280;6725;48.112;11.604;2023-07-31T09:46:35;95265.09;;;30.04;77.23
13314;BME280;6725;48.112;11.604;2023-07-31T09:49:11;95260.75;;;30.03;76.58
13314;BME280;6725;48.112;11.604;2023-07-31T09:51:37;95253.50;;;30.89;70.86
13314;BME280;6725;48.112;11.604;2023-07-31T09:54:12;95255.66;;;32.13;66.48
13314;BME280;6725;48.112;11.604;2023-07-31T09:56:45;95247.84;;;32.60;59.20
13314;BME280;6725;48.112;11.604;2023-07-31T09:59:12;95252.53;;;32.58;59.15
13314;BME280;6725;48.112;11.604;2023-07-31T10:01:39;95233.91;;;32.62;60.53
13314;BME280;6725;48.112;11.604;2023-07-31T10:04:07;95231.91;;;32.91;55.01
13314;BME280;6725;48.112;11.604;2023-07-31T10:06:34;95228.06;;;31.93;58.85
13314;BME280;6725;48.112;11.604;2023-07-31T10:09:00;95223.63;;;30.36;68.85
13314;BME280;6725;48.112;11.604;2023-07-31T10:11:27;95222.81;;;30.22;70.90
13314;BME280;6725;48.112;11.604;2023-07-31T10:13:54;95220.72;;;31.64;66.04
13314;BME280;6725;48.112;11.604;2023-07-31T10:16:21;95216.31;;;32.02;63.25
13314;BME280;6725;48.112;11.604;2023-07-31T10:18:47;95204.13;;;31.48;64.93
13314;BME280;6725;48.112;11.604;2023-07-31T10:21:13;95193.59;;;31.35;65.02
13314;BME280;6725;48.112;11.604;2023-07-31T10:23:40;95197.41;;;31.97;62.80
13314;BME280;6725;48.112;11.604;2023-07-31T10:26:08;95188.22;;;32.58;57.41
13314;BME280;6725;48.112;11.604;2023-07-31T10:28:34;95187.00;;;32.46;53.55
13314;BME280;6725;48.112;11.604;2023-07-31T10:31:02;95195.38;;;32.59;58.51
13314;BME280;6725;48.112;11.604;2023-07-31T10:33:28;95184.75;;;32.52;60.46
13314;BME280;6725;48.112;11.604;2023-07-31T10:36:22;95190.91;;;31.89;60.27
13314;BME280;6725;48.112;11.604;2023-07-31T10:38:50;95187.09;;;30.12;63.01
13314;BME280;6725;48.112;11.604;2023-07-31T10:41:16;95178.69;;;30.25;66.81
13314;BME280;6725;48.112;11.604;2023-07-31T10:43:41;95181.34;;;29.86;65.36
13314;BME280;6725;48.112;11.604;2023-07-31T10:46:08;95183.00;;;29.94;70.14
13314;BME280;6725;48.112;11.604;2023-07-31T10:48:35;95189.00;;;29.30;70.20
13314;BME280;6725;48.112;11.604;2023-07-31T10:51:07;95188.22;;;28.87;73.18
13314;BME280;6725;48.112;11.604;2023-07-31T10:53:34;95194.66;;;28.58;73.50
13314;BME280;6725;48.112;11.604;2023-07-31T10:56:03;95174.94;;;28.33;76.28
13314;BME280;6725;48.112;11.604;2023-07-31T10:58:29;95179.41;;;28.18;75.12
13314;BME280;6725;48.112;11.604;2023-07-31T11:00:58;95174.63;;;28.07;78.66
13314;BME280;6725;48.112;11.604;2023-07-31T11:03:44;95170.81;;;28.34;74.73
13314;BME280;6725;48.112;11.604;2023-07-31T11:06:09;95162.31;;;28.70;73.53
13314;BME280;6725;48.112;11.604;2023-07-31T11:08:41;95172.28;;;28.47;76.80
13314;BME280;6725;48.112;11.604;2023-07-31T11:11:09;95157.50;;;29.31;76.11
13314;BME280;6725;48.112;11.604;2023-07-31T11:13:46;95146.84;;;28.82;71.27
13314;BME280;6725;48.112;11.604;2023-07-31T11:16:14;95157.75;;;28.67;74.15
13314;BME280;6725;48.112;11.604;2023-07-31T11:18:43;95144.22;;;28.41;77.04
13314;BME280;6725;48.112;11.604;2023-07-31T11:21:12;95148.72;;;28.50;77.23
13314;BME280;6725;48.112;11.604;2023-07-31T11:23:38;95149.41;;;28.32;80.63
13314;BME280;6725;48.112;11.604;2023-07-31T11:26:05;95154.16;;;28.12;81.70
13314;BME280;6725;48.112;11.604;2023-07-31T11:28:32;95147.53;;;28.10;80.93
13314;BME280;6725;48.112;11.604;2023-07-31T11:30:59;95152.78;;;29.21;75.83
13314;BME280;6725;48.112;11.604;2023-07-31T11:33:24;95140.00;;;30.07;71.53
13314;BME280;6725;48.112;11.604;2023-07-31T11:35:49;95141.53;;;29.58;70.79
13314;BME280;6725;48.112;11.604;2023-07-31T11:38:23;95142.38;;;29.53;71.77
13314;BME280;6725;48.112;11.604;2023-07-31T11:40:52;95126.00;;;30.20;66.60
13314;BME280;6725;48.112;11.604;2023-07-31T11:43:19;95128.19;;;29.95;65.77
13314;BME280;6725;48.112;11.604;2023-07-31T11:45:49;95121.19;;;29.83;62.02
13314;BME280;6725;48.112;11.604;2023-07-31T11:48:26;95118.78;;;29.56;64.24
13314;BME280;6725;48.112;11.604;2023-07-31T11:50:53;95111.78;;;29.07;70.75
13314;BME280;6725;48.112;11.604;2023-07-31T11:55:54;95103.38;;;28.83;73.14
13314;BME280;6725;48.112;11.604;2023-07-31T11:58:20;95098.13;;;28.25;77.94
13314;BME280;6725;48.112;11.604;2023-07-31T12:00:47;95090.56;;;27.85;81.24
13314;BME280;6725;48.112;11.604;2023-07-31T12:03:13;95090.56;;;27.85;85.27
13314;BME280;6725;48.112;11.604;2023-07-31T12:05:38;95081.94;;;27.43;85.32
13314;BME280;6725;48.112;11.604;2023-07-31T12:08:09;95072.28;;;27.38;85.17
13314;BME280;6725;48.112;11.604;2023-07-31T12:10:35;95081.59;;;26.60;95.10
13314;BME280;6725;48.112;11.604;2023-07-31T12:13:03;95077.66;;;26.90;95.88
13314;BME280;6725;48.112;11.604;2023-07-31T12:15:35;95068.25;;;26.88;92.50
13314;BME280;6725;48.112;11.604;2023-07-31T12:18:06;95062.19;;;26.78;95.29
13314;BME280;6725;48.112;11.604;2023-07-31T12:20:32;95061.75;;;26.52;85.25
13314;BME280;6725;48.112;11.604;2023-07-31T12:22:59;95061.16;;;26.70;91.08
13314;BME280;6725;48.112;11.604;2023-07-31T12:25:33;95062.25;;;26.56;85.26
13314;BME280;6725;48.112;11.604;2023-07-31T12:28:06;95052.53;;;26.68;85.96
13314;BME280;6725;48.112;11.604;2023-07-31T12:30:38;95042.53;;;26.84;83.44
13314;BME280;6725;48.112;11.604;2023-07-31T12:33:14;95043.03;;;27.28;83.04
13314;BME280;6725;48.112;11.604;2023-07-31T12:35:47;95043.91;;;27.47;82.86
13314;BME280;6725;48.112;11.604;2023-07-31T12:38:13;95039.34;;;27.44;81.07
13314;BME280;6725;48.112;11.604;2023-07-31T12:40:39;95037.81;;;27.73;79.30
13314;BME280;6725;48.112;11.604;2023-07-31T12:43:06;95032.00;;;27.65;74.19
13314;BME280;6725;48.112;11.604;2023-07-31T12:45:32;95021.28;;;27.69;78.49
13314;BME280;6725;48.112;11.604;2023-07-31T12:48:01;95018.56;;;28.12;74.52
13314;BME280;6725;48.112;11.604;2023-07-31T12:50:27;95016.00;;;27.90;77.66
13314;BME280;6725;48.112;11.604;2023-07-31T12:52:56;95013.94;;;27.90;76.11
13314;BME280;6725;48.112;11.604;2023-07-31T12:55:22;95012.94;;;27.58;81.51
13314;BME280;6725;48.112;11.604;2023-07-31T12:57:48;95007.03;;;27.32;84.96
13314;BME280;6725;48.112;11.604;2023-07-31T13:00:13;95010.56;;;27.38;85.08